sensor_id;sensor_type;location;lat;lon;timestamp;pressure;altitude;pressure_sealevel;temperature;humidity
51528;BME280;37612;51.768;21.590;2022-11-15T00:02:59;100457.03;;;5.60;100.00
51528;BME280;37612;51.768;21.590;2022-11-15T00:07:00;100452.55;;;5.62;100.00
51528;BME280;37612;51.768;21.590;2022-11-15T00:11:02;100455.09;;;5.57;100.00
51528;BME280;37612;51.768;21.590;2022-11-15T00:15:04;100456.67;;;5.50;100.00
51528;BME280;37612;51.768;21.590;2022-11-15T00:19:05;100453.44;;;5.48;100.00
51528;BME280;37612;51.768;21.590;2022-11-15T00:23:07;100445.39;;;5.50;100.00
51528;BME280;37612;51.768;21.590;2022-11-15T00:27:08;100439.61;;;5.50;100.00
51528;BME280;37612;51.768;21.590;2022-11-15T00:31:13;100434.52;;;5.51;100.00
51528;BME280;37612;51.768;21.590;2022-11-15T00:35:14;100431.30;;;5.50;100.00
51528;BME280;37612;51.768;21.590;2022-11-15T00:39:15;100423.66;;;5.45;100.00
51528;BME280;37612;51.768;21.590;2022-11-15T00:43:16;100418.33;;;5.42;100.00
51528;BME280;37612;51.768;21.590;2022-11-15T00:47:18;100409.92;;;5.43;100.00
51528;BME280;37612;51.768;21.590;2022-11-15T00:51:19;100410.25;;;5.46;100.00
51528;BME280;37612;51.768;21.590;2022-11-15T00:55:20;100399.20;;;5.50;100.00
51528;BME280;37612;51.768;21.590;2022-11-15T00:59:21;100394.80;;;5.48;100.00
51528;BME280;37612;51.768;21.590;2022-11-15T01:03:22;100387.40;;;5.41;100.00
51528;BME280;37612;51.768;21.590;2022-11-15T01:07:24;100381.30;;;5.38;100.00
51528;BME280;37612;51.768;21.590;2022-11-15T01:11:25;100378.21;;;5.33;100.00
51528;BME280;37612;51.768;21.590;2022-11-15T01:15:26;100376.10;;;5.30;100.00
51528;BME280;37612;51.768;21.590;2022-11-15T01:19:27;100373.34;;;5.24;100.00
51528;BME280;37612;51.768;21.590;2022-11-15T01:23:28;100363.61;;;5.20;100.00
51528;BME280;37612;51.768;21.590;2022-11-15T01:27:29;100352.66;;;5.21;100.00
51528;BME280;37612;51.768;21.590;2022-11-15T01:31:31;100349.64;;;5.23;100.00
51528;BME280;37612;51.768;21.590;2022-11-15T01:35:32;100344.68;;;5.22;100.00
51528;BME280;37612;51.768;21.590;2022-11-15T01:39:33;100338.38;;;5.21;100.00
51528;BME280;37612;51.768;21.590;2022-11-15T01:43:36;100338.45;;;5.21;100.00
51528;BME280;37612;51.768;21.590;2022-11-15T01:47:40;100331.48;;;5.20;100.00
51528;BME280;37612;51.768;21.590;2022-11-15T01:51:42;100324.32;;;5.19;100.00
51528;BME280;37612;51.768;21.590;2022-11-15T01:55:43;100320.83;;;5.19;100.00
51528;BME280;37612;51.768;21.590;2022-11-15T01:59:46;100310.44;;;5.22;100.00
51528;BME280;37612;51.768;21.590;2022-11-15T02:03:57;100303.26;;;5.27;100.00
51528;BME280;37612;51.768;21.590;2022-11-15T02:08:00;100297.08;;;5.23;100.00
51528;BME280;37612;51.768;21.590;2022-11-15T02:12:02;100296.67;;;5.19;100.00
51528;BME280;37612;51.768;21.590;2022-11-15T02:29:11;100286.24;;;5.08;100.00
51528;BME280;37612;51.768;21.590;2022-11-15T02:42:08;100275.06;;;4.99;100.00
51528;BME280;37612;51.768;21.590;2022-11-15T02:50:54;100263.46;;;4.98;100.00
51528;BME280;37612;51.768;21.590;2022-11-15T02:54:58;100257.64;;;4.98;100.00
51528;BME280;37612;51.768;21.590;2022-11-15T03:11:50;100244.71;;;4.95;100.00
51528;BME280;37612;51.768;21.590;2022-11-15T03:16:09;100244.71;;;4.95;100.00
51528;BME280;37612;51.768;21.590;2022-11-15T03:20:14;100239.18;;;4.94;100.00
51528;BME280;37612;51.768;21.590;2022-11-15T03:24:19;100232.30;;;4.94;100.00
51528;BME280;37612;51.768;21.590;2022-11-15T03:28:34;100230.96;;;4.88;100.00
51528;BME280;37612;51.768;21.590;2022-11-15T03:32:55;100230.83;;;4.82;100.00
51528;BME280;37612;51.768;21.590;2022-11-15T03:36:57;100227.92;;;4.81;100.00
51528;BME280;37612;51.768;21.590;2022-11-15T03:41:06;100221.78;;;4.82;100.00
51528;BME280;37612;51.768;21.590;2022-11-15T03:45:18;100216.09;;;4.80;100.00
51528;BME280;37612;51.768;21.590;2022-11-15T03:49:28;100209.03;;;4.77;100.00
51528;BME280;37612;51.768;21.590;2022-11-15T03:53:30;100205.77;;;4.79;100.00
51528;BME280;37612;51.768;21.590;2022-11-15T03:57:32;100202.95;;;4.79;100.00
51528;BME280;37612;51.768;21.590;2022-11-15T04:01:33;100193.88;;;4.80;100.00
51528;BME280;37612;51.768;21.590;2022-11-15T04:05:35;100192.63;;;4.73;100.00
51528;BME280;37612;51.768;21.590;2022-11-15T04:09:36;100184.95;;;4.71;100.00
51528;BME280;37612;51.768;21.590;2022-11-15T04:13:59;100173.47;;;4.70;100.00
51528;BME280;37612;51.768;21.590;2022-11-15T04:18:01;100168.23;;;4.69;100.00
51528;BME280;37612;51.768;21.590;2022-11-15T04:22:02;100157.57;;;4.68;100.00
51528;BME280;37612;51.768;21.590;2022-11-15T04:26:22;100158.98;;;4.72;100.00
51528;BME280;37612;51.768;21.590;2022-11-15T04:30:24;100152.27;;;4.72;100.00
51528;BME280;37612;51.768;21.590;2022-11-15T04:34:25;100146.79;;;4.68;100.00
51528;BME280;37612;51.768;21.590;2022-11-15T04:38:26;100147.98;;;4.66;100.00
51528;BME280;37612;51.768;21.590;2022-11-15T04:42:27;100143.63;;;4.66;100.00
51528;BME280;37612;51.768;21.590;2022-11-15T04:46:28;100147.08;;;4.67;100.00
51528;BME280;37612;51.768;21.590;2022-11-15T04:50:29;100144.91;;;4.64;100.00
51528;BME280;37612;51.768;21.590;2022-11-15T04:54:30;100135.14;;;4.61;100.00
51528;BME280;37612;51.768;21.590;2022-11-15T04:58:31;100129.85;;;4.61;100.00
51528;BME280;37612;51.768;21.590;2022-11-15T05:02:33;100127.95;;;4.60;100.00
51528;BME280;37612;51.768;21.590;2022-11-15T05:06:52;100128.35;;;4.56;100.00
51528;BME280;37612;51.768;21.590;2022-11-15T05:10:54;100132.64;;;4.54;100.00
51528;BME280;37612;51.768;21.590;2022-11-15T05:14:55;100125.89;;;4.52;100.00
51528;BME280;37612;51.768;21.590;2022-11-15T05:18:56;100122.36;;;4.48;100.00
51528;BME280;37612;51.768;21.590;2022-11-15T05:22:57;100118.08;;;4.43;100.00
51528;BME280;37612;51.768;21.590;2022-11-15T05:26:58;100116.96;;;4.41;100.00
51528;BME280;37612;51.768;21.590;2022-11-15T05:31:01;100111.61;;;4.38;100.00
51528;BME280;37612;51.768;21.590;2022-11-15T05:35:05;100111.05;;;4.31;100.00
51528;BME280;37612;51.768;21.590;2022-11-15T05:39:08;100104.35;;;4.28;100.00
51528;BME280;37612;51.768;21.590;2022-11-15T05:43:10;100109.11;;;4.25;100.00
51528;BME280;37612;51.768;21.590;2022-11-15T05:47:15;100105.43;;;4.21;100.00
51528;BME280;37612;51.768;21.590;2022-11-15T05:51:19;100102.62;;;4.19;100.00
51528;BME280;37612;51.768;21.590;2022-11-15T05:55:21;100099.36;;;4.17;100.00
51528;BME280;37612;51.768;21.590;2022-11-15T05:59:23;100093.64;;;4.17;100.00
51528;BME280;37612;51.768;21.590;2022-11-15T06:03:25;100097.70;;;4.17;100.00
51528;BME280;37612;51.768;21.590;2022-11-15T06:07:26;100097.23;;;4.17;100.00
51528;BME280;37612;51.768;21.590;2022-11-15T06:11:27;100102.37;;;4.17;100.00
51528;BME280;37612;51.768;21.590;2022-11-15T06:15:32;100106.11;;;4.17;100.00
51528;BME280;37612;51.768;21.590;2022-11-15T06:19:35;100110.39;;;4.14;100.00
51528;BME280;37612;51.768;21.590;2022-11-15T06:23:36;100110.88;;;4.13;100.00
51528;BME280;37612;51.768;21.590;2022-11-15T06:27:37;100114.90;;;4.16;100.00
51528;BME280;37612;51.768;21.590;2022-11-15T06:31:38;100122.63;;;4.19;100.00
51528;BME280;37612;51.768;21.590;2022-11-15T06:35:40;100121.15;;;4.18;100.00
51528;BME280;37612;51.768;21.590;2022-11-15T06:39:41;100122.10;;;4.16;100.00
51528;BME280;37612;51.768;21.590;2022-11-15T06:43:42;100123.48;;;4.16;100.00
51528;BME280;37612;51.768;21.590;2022-11-15T06:47:46;100120.99;;;4.19;100.00
51528;BME280;37612;51.768;21.590;2022-11-15T06:51:48;100124.00;;;4.22;100.00
51528;BME280;37612;51.768;21.590;2022-11-15T06:55:49;100123.27;;;4.26;100.00
51528;BME280;37612;51.768;21.590;2022-11-15T06:59:50;100120.20;;;4.30;100.00
51528;BME280;37612;51.768;21.590;2022-11-15T07:03:51;100123.58;;;4.31;100.00
51528;BME280;37612;51.768;21.590;2022-11-15T07:07:54;100123.91;;;4.25;100.00
51528;BME280;37612;51.768;21.590;2022-11-15T07:11:55;100125.95;;;4.21;100.00
51528;BME280;37612;51.768;21.590;2022-11-15T07:15:56;100131.55;;;4.24;100.00
51528;BME280;37612;51.768;21.590;2022-11-15T07:19:58;100129.67;;;4.32;100.00
51528;BME280;37612;51.768;21.590;2022-11-15T07:23:59;100128.15;;;4.38;100.00
51528;BME280;37612;51.768;21.590;2022-11-15T07:28:00;100122.49;;;4.41;100.00
51528;BME280;37612;51.768;21.590;2022-11-15T07:32:02;100119.77;;;4.40;100.00
51528;BME280;37612;51.768;21.590;2022-11-15T07:36:05;100119.48;;;4.42;100.00
51528;BME280;37612;51.768;21.590;2022-11-15T07:40:08;100120.13;;;4.49;100.00
51528;BME280;37612;51.768;21.590;2022-11-15T07:44:09;100119.58;;;4.56;100.00
51528;BME280;37612;51.768;21.590;2022-11-15T07:48:10;100124.04;;;4.58;100.00
51528;BME280;37612;51.768;21.590;2022-11-15T07:52:12;100119.52;;;4.60;100.00
51528;BME280;37612;51.768;21.590;2022-11-15T07:56:13;100115.40;;;4.62;100.00
51528;BME280;37612;51.768;21.590;2022-11-15T08:00:15;100112.86;;;4.57;100.00
51528;BME280;37612;51.768;21.590;2022-11-15T08:04:17;100110.56;;;4.64;100.00
51528;BME280;37612;51.768;21.590;2022-11-15T08:08:18;100104.76;;;4.71;100.00
51528;BME280;37612;51.768;21.590;2022-11-15T08:12:19;100095.48;;;4.75;100.00
51528;BME280;37612;51.768;21.590;2022-11-15T08:16:21;100088.46;;;4.77;100.00
51528;BME280;37612;51.768;21.590;2022-11-15T08:20:22;100085.89;;;4.79;100.00
51528;BME280;37612;51.768;21.590;2022-11-15T08:24:23;100083.54;;;4.86;100.00
51528;BME280;37612;51.768;21.590;2022-11-15T08:28:25;100079.56;;;4.81;100.00
51528;BME280;37612;51.768;21.590;2022-11-15T08:32:26;100077.56;;;4.75;100.00
51528;BME280;37612;51.768;21.590;2022-11-15T08:36:27;100079.11;;;4.83;100.00
51528;BME280;37612;51.768;21.590;2022-11-15T08:40:28;100076.75;;;4.93;100.00
51528;BME280;37612;51.768;21.590;2022-11-15T08:44:29;100071.89;;;4.97;100.00
51528;BME280;37612;51.768;21.590;2022-11-15T08:48:31;100076.11;;;4.97;100.00
51528;BME280;37612;51.768;21.590;2022-11-15T08:52:32;100075.77;;;4.97;100.00
51528;BME280;37612;51.768;21.590;2022-11-15T08:56:33;100070.92;;;4.95;100.00
51528;BME280;37612;51.768;21.590;2022-11-15T09:00:34;100073.82;;;4.95;100.00
51528;BME280;37612;51.768;21.590;2022-11-15T09:04:35;100071.03;;;4.97;100.00
51528;BME280;37612;51.768;21.590;2022-11-15T09:08:36;100066.98;;;5.03;100.00
51528;BME280;37612;51.768;21.590;2022-11-15T09:12:38;100064.84;;;5.05;100.00
51528;BME280;37612;51.768;21.590;2022-11-15T09:16:39;100060.09;;;5.09;100.00
51528;BME280;37612;51.768;21.590;2022-11-15T09:20:40;100056.33;;;5.07;100.00
51528;BME280;37612;51.768;21.590;2022-11-15T09:24:41;100051.81;;;5.11;100.00
51528;BME280;37612;51.768;21.590;2022-11-15T09:28:43;100046.79;;;5.16;100.00
51528;BME280;37612;51.768;21.590;2022-11-15T09:32:44;100043.01;;;5.15;100.00
51528;BME280;37612;51.768;21.590;2022-11-15T09:36:45;100037.23;;;5.15;100.00
51528;BME280;37612;51.768;21.590;2022-11-15T09:40:52;100036.48;;;5.15;100.00
51528;BME280;37612;51.768;21.590;2022-11-15T09:45:10;100030.41;;;5.22;100.00
51528;BME280;37612;51.768;21.590;2022-11-15T09:49:15;100024.88;;;5.30;100.00
51528;BME280;37612;51.768;21.590;2022-11-15T09:53:41;100021.44;;;5.31;100.00
51528;BME280;37612;51.768;21.590;2022-11-15T09:57:51;100011.23;;;5.39;100.00
51528;BME280;37612;51.768;21.590;2022-11-15T10:06:26;99993.80;;;5.58;100.00
51528;BME280;37612;51.768;21.590;2022-11-15T10:10:45;99985.17;;;5.66;100.00
51528;BME280;37612;51.768;21.590;2022-11-15T10:14:49;99978.18;;;5.68;100.00
51528;BME280;37612;51.768;21.590;2022-11-15T10:18:56;99967.19;;;5.63;100.00
51528;BME280;37612;51.768;21.590;2022-11-15T10:23:01;99961.81;;;5.68;100.00
51528;BME280;37612;51.768;21.590;2022-11-15T10:27:16;99954.98;;;5.75;100.00
51528;BME280;37612;51.768;21.590;2022-11-15T10:31:27;99946.32;;;5.81;100.00
51528;BME280;37612;51.768;21.590;2022-11-15T10:35:29;99942.45;;;5.88;100.00
51528;BME280;37612;51.768;21.590;2022-11-15T10:39:31;99941.27;;;5.86;100.00
51528;BME280;37612;51.768;21.590;2022-11-15T10:43:34;99946.54;;;5.79;100.00
51528;BME280;37612;51.768;21.590;2022-11-15T10:47:35;99943.52;;;5.76;100.00
51528;BME280;37612;51.768;21.590;2022-11-15T10:51:52;99939.98;;;5.83;100.00
51528;BME280;37612;51.768;21.590;2022-11-15T10:55:58;99929.94;;;5.88;100.00
51528;BME280;37612;51.768;21.590;2022-11-15T11:00:26;99923.87;;;5.91;100.00
51528;BME280;37612;51.768;21.590;2022-11-15T11:04:25;99923.21;;;5.97;100.00
51528;BME280;37612;51.768;21.590;2022-11-15T11:08:27;99921.48;;;6.03;100.00
51528;BME280;37612;51.768;21.590;2022-11-15T11:12:30;99921.23;;;6.06;100.00
51528;BME280;37612;51.768;21.590;2022-11-15T11:16:43;99919.73;;;6.03;100.00
51528;BME280;37612;51.768;21.590;2022-11-15T11:20:51;99916.88;;;6.05;100.00
51528;BME280;37612;51.768;21.590;2022-11-15T11:33:44;99888.34;;;6.18;100.00
51528;BME280;37612;51.768;21.590;2022-11-15T11:37:51;99880.02;;;6.22;100.00
51528;BME280;37612;51.768;21.590;2022-11-15T11:50:29;99874.39;;;6.16;100.00
51528;BME280;37612;51.768;21.590;2022-11-15T11:58:44;99869.91;;;6.17;100.00
51528;BME280;37612;51.768;21.590;2022-11-15T12:07:04;99866.40;;;6.16;100.00
51528;BME280;37612;51.768;21.590;2022-11-15T12:15:21;99850.69;;;6.07;100.00
51528;BME280;37612;51.768;21.590;2022-11-15T12:19:23;99848.70;;;6.06;100.00
51528;BME280;37612;51.768;21.590;2022-11-15T12:23:28;99843.22;;;6.05;100.00
51528;BME280;37612;51.768;21.590;2022-11-15T12:27:52;99841.80;;;6.04;100.00
51528;BME280;37612;51.768;21.590;2022-11-15T12:31:57;99837.33;;;6.07;100.00
51528;BME280;37612;51.768;21.590;2022-11-15T12:36:04;99832.63;;;6.10;100.00
51528;BME280;37612;51.768;21.590;2022-11-15T12:44:12;99821.38;;;6.13;100.00
51528;BME280;37612;51.768;21.590;2022-11-15T12:52:18;99816.66;;;5.97;100.00
51528;BME280;37612;51.768;21.590;2022-11-15T12:56:21;99809.43;;;5.91;100.00
51528;BME280;37612;51.768;21.590;2022-11-15T13:04:29;99798.41;;;5.84;100.00
51528;BME280;37612;51.768;21.590;2022-11-15T13:08:39;99795.77;;;5.82;100.00
51528;BME280;37612;51.768;21.590;2022-11-15T13:16:46;99786.23;;;5.72;100.00
51528;BME280;37612;51.768;21.590;2022-11-15T13:20:48;99788.98;;;5.76;100.00
51528;BME280;37612;51.768;21.590;2022-11-15T13:24:49;99791.90;;;5.75;100.00
51528;BME280;37612;51.768;21.590;2022-11-15T13:28:51;99787.30;;;5.72;100.00
51528;BME280;37612;51.768;21.590;2022-11-15T13:32:58;99791.56;;;5.60;100.00
51528;BME280;37612;51.768;21.590;2022-11-15T13:37:02;99789.71;;;5.54;100.00
51528;BME280;37612;51.768;21.590;2022-11-15T13:41:17;99784.48;;;5.53;100.00
51528;BME280;37612;51.768;21.590;2022-11-15T13:45:20;99781.59;;;5.52;100.00
51528;BME280;37612;51.768;21.590;2022-11-15T13:49:29;99781.56;;;5.54;100.00
51528;BME280;37612;51.768;21.590;2022-11-15T13:53:33;99773.39;;;5.56;100.00
51528;BME280;37612;51.768;21.590;2022-11-15T14:01:41;99769.22;;;5.58;100.00
51528;BME280;37612;51.768;21.590;2022-11-15T14:06:07;99766.73;;;5.60;100.00
51528;BME280;37612;51.768;21.590;2022-11-15T14:14:45;99766.18;;;5.65;100.00
51528;BME280;37612;51.768;21.590;2022-11-15T14:18:47;99761.13;;;5.72;100.00
51528;BME280;37612;51.768;21.590;2022-11-15T14:22:55;99759.06;;;5.74;100.00
51528;BME280;37612;51.768;21.590;2022-11-15T14:27:18;99754.30;;;5.68;100.00
51528;BME280;37612;51.768;21.590;2022-11-15T14:31:20;99752.46;;;5.65;100.00
51528;BME280;37612;51.768;21.590;2022-11-15T14:35:23;99745.09;;;5.65;100.00
51528;BME280;37612;51.768;21.590;2022-11-15T14:39:24;99749.70;;;5.68;100.00
51528;BME280;37612;51.768;21.590;2022-11-15T14:43:26;99741.27;;;5.67;100.00
51528;BME280;37612;51.768;21.590;2022-11-15T14:47:27;99736.16;;;5.68;100.00
51528;BME280;37612;51.768;21.590;2022-11-15T14:51:28;99725.73;;;5.72;100.00
51528;BME280;37612;51.768;21.590;2022-11-15T14:55:32;99731.09;;;5.76;100.00
51528;BME280;37612;51.768;21.590;2022-11-15T14:59:35;99728.72;;;5.76;100.00
51528;BME280;37612;51.768;21.590;2022-11-15T15:03:37;99730.21;;;5.74;100.00
51528;BME280;37612;51.768;21.590;2022-11-15T15:07:38;99729.69;;;5.67;100.00
51528;BME280;37612;51.768;21.590;2022-11-15T15:11:39;99727.00;;;5.62;100.00
51528;BME280;37612;51.768;21.590;2022-11-15T15:15:40;99723.84;;;5.54;100.00
51528;BME280;37612;51.768;21.590;2022-11-15T15:19:42;99720.38;;;5.42;100.00
51528;BME280;37612;51.768;21.590;2022-11-15T15:23:43;99721.51;;;5.30;100.00
51528;BME280;37612;51.768;21.590;2022-11-15T15:27:45;99721.04;;;5.25;100.00
51528;BME280;37612;51.768;21.590;2022-11-15T15:31:46;99715.27;;;5.27;100.00
51528;BME280;37612;51.768;21.590;2022-11-15T15:35:47;99714.14;;;5.27;100.00
51528;BME280;37612;51.768;21.590;2022-11-15T15:39:55;99717.90;;;5.25;100.00
51528;BME280;37612;51.768;21.590;2022-11-15T15:43:57;99721.10;;;5.26;100.00
51528;BME280;37612;51.768;21.590;2022-11-15T15:47:58;99725.17;;;5.33;100.00
51528;BME280;37612;51.768;21.590;2022-11-15T15:51:59;99721.95;;;5.37;100.00
51528;BME280;37612;51.768;21.590;2022-11-15T15:56:00;99724.85;;;5.33;100.00
51528;BME280;37612;51.768;21.590;2022-11-15T16:00:03;99724.51;;;5.27;100.00
51528;BME280;37612;51.768;21.590;2022-11-15T16:04:04;99716.91;;;5.26;100.00
51528;BME280;37612;51.768;21.590;2022-11-15T16:08:16;99725.20;;;5.19;100.00
51528;BME280;37612;51.768;21.590;2022-11-15T16:12:18;99722.44;;;5.15;100.00
51528;BME280;37612;51.768;21.590;2022-11-15T16:16:21;99717.94;;;5.11;100.00
51528;BME280;37612;51.768;21.590;2022-11-15T16:20:34;99708.84;;;5.09;100.00
51528;BME280;37612;51.768;21.590;2022-11-15T16:24:35;99707.19;;;5.09;100.00
51528;BME280;37612;51.768;21.590;2022-11-15T16:28:37;99716.48;;;5.03;100.00
51528;BME280;37612;51.768;21.590;2022-11-15T16:32:38;99713.33;;;4.98;100.00
51528;BME280;37612;51.768;21.590;2022-11-15T16:36:39;99708.24;;;4.90;100.00
51528;BME280;37612;51.768;21.590;2022-11-15T16:40:40;99702.33;;;4.80;100.00
51528;BME280;37612;51.768;21.590;2022-11-15T16:44:41;99696.14;;;4.77;100.00
51528;BME280;37612;51.768;21.590;2022-11-15T16:48:43;99696.00;;;4.78;100.00
51528;BME280;37612;51.768;21.590;2022-11-15T16:52:44;99694.08;;;4.82;100.00
51528;BME280;37612;51.768;21.590;2022-11-15T16:56:46;99690.16;;;4.87;100.00
51528;BME280;37612;51.768;21.590;2022-11-15T17:00:52;99697.35;;;4.92;100.00
51528;BME280;37612;51.768;21.590;2022-11-15T17:04:53;99697.15;;;4.92;100.00
51528;BME280;37612;51.768;21.590;2022-11-15T17:08:54;99695.12;;;4.90;100.00
51528;BME280;37612;51.768;21.590;2022-11-15T17:12:56;99700.58;;;4.91;100.00
51528;BME280;37612;51.768;21.590;2022-11-15T17:16:57;99700.10;;;4.95;100.00
51528;BME280;37612;51.768;21.590;2022-11-15T17:21:03;99690.14;;;4.99;100.00
51528;BME280;37612;51.768;21.590;2022-11-15T17:25:05;99684.13;;;4.96;100.00
51528;BME280;37612;51.768;21.590;2022-11-15T17:29:07;99678.30;;;4.90;100.00
51528;BME280;37612;51.768;21.590;2022-11-15T17:33:08;99676.07;;;4.86;100.00
51528;BME280;37612;51.768;21.590;2022-11-15T17:37:09;99674.23;;;4.89;100.00
51528;BME280;37612;51.768;21.590;2022-11-15T17:41:13;99675.05;;;4.89;100.00
51528;BME280;37612;51.768;21.590;2022-11-15T17:45:14;99671.10;;;4.88;100.00
51528;BME280;37612;51.768;21.590;2022-11-15T17:49:16;99669.46;;;4.79;100.00
51528;BME280;37612;51.768;21.590;2022-11-15T17:53:17;99667.25;;;4.73;100.00
51528;BME280;37612;51.768;21.590;2022-11-15T17:57:18;99662.65;;;4.69;100.00
51528;BME280;37612;51.768;21.590;2022-11-15T18:01:27;99661.80;;;4.57;100.00
51528;BME280;37612;51.768;21.590;2022-11-15T18:05:29;99659.08;;;4.53;100.00
51528;BME280;37612;51.768;21.590;2022-11-15T18:09:30;99651.62;;;4.59;100.00
51528;BME280;37612;51.768;21.590;2022-11-15T18:13:35;99646.58;;;4.67;100.00
51528;BME280;37612;51.768;21.590;2022-11-15T18:17:37;99644.17;;;4.66;100.00
51528;BME280;37612;51.768;21.590;2022-11-15T18:21:44;99651.00;;;4.64;100.00
51528;BME280;37612;51.768;21.590;2022-11-15T18:26:03;99643.55;;;4.65;100.00
51528;BME280;37612;51.768;21.590;2022-11-15T18:30:05;99639.00;;;4.64;100.00
51528;BME280;37612;51.768;21.590;2022-11-15T18:34:07;99641.19;;;4.60;100.00
51528;BME280;37612;51.768;21.590;2022-11-15T18:38:09;99643.98;;;4.54;100.00
51528;BME280;37612;51.768;21.590;2022-11-15T18:42:14;99639.11;;;4.49;100.00
51528;BME280;37612;51.768;21.590;2022-11-15T18:46:18;99642.48;;;4.51;100.00
51528;BME280;37612;51.768;21.590;2022-11-15T18:50:20;99647.43;;;4.50;100.00
51528;BME280;37612;51.768;21.590;2022-11-15T18:54:21;99646.94;;;4.46;100.00
51528;BME280;37612;51.768;21.590;2022-11-15T18:58:23;99642.33;;;4.44;100.00
51528;BME280;37612;51.768;21.590;2022-11-15T19:02:25;99638.33;;;4.47;100.00
51528;BME280;37612;51.768;21.590;2022-11-15T19:06:28;99635.45;;;4.49;100.00
51528;BME280;37612;51.768;21.590;2022-11-15T19:10:29;99642.10;;;4.52;100.00
51528;BME280;37612;51.768;21.590;2022-11-15T19:14:31;99645.09;;;4.50;100.00
51528;BME280;37612;51.768;21.590;2022-11-15T19:18:33;99640.77;;;4.47;100.00
51528;BME280;37612;51.768;21.590;2022-11-15T19:22:34;99635.23;;;4.46;100.00
51528;BME280;37612;51.768;21.590;2022-11-15T19:26:36;99639.39;;;4.41;100.00
51528;BME280;37612;51.768;21.590;2022-11-15T19:30:37;99637.41;;;4.32;100.00
51528;BME280;37612;51.768;21.590;2022-11-15T19:34:39;99639.58;;;4.25;100.00
51528;BME280;37612;51.768;21.590;2022-11-15T19:38:42;99634.63;;;4.26;100.00
51528;BME280;37612;51.768;21.590;2022-11-15T19:42:43;99635.44;;;4.31;100.00
51528;BME280;37612;51.768;21.590;2022-11-15T19:46:46;99628.75;;;4.32;100.00
51528;BME280;37612;51.768;21.590;2022-11-15T19:50:48;99629.94;;;4.33;100.00
51528;BME280;37612;51.768;21.590;2022-11-15T19:54:49;99631.15;;;4.33;100.00
51528;BME280;37612;51.768;21.590;2022-11-15T19:58:53;99622.45;;;4.33;100.00
51528;BME280;37612;51.768;21.590;2022-11-15T20:02:54;99613.50;;;4.37;100.00
51528;BME280;37612;51.768;21.590;2022-11-15T20:07:00;99607.75;;;4.37;100.00
51528;BME280;37612;51.768;21.590;2022-11-15T20:11:08;99606.36;;;4.36;100.00
51528;BME280;37612;51.768;21.590;2022-11-15T20:15:10;99606.83;;;4.40;100.00
51528;BME280;37612;51.768;21.590;2022-11-15T20:19:12;99612.59;;;4.38;100.00
51528;BME280;37612;51.768;21.590;2022-11-15T20:23:17;99608.34;;;4.36;100.00
51528;BME280;37612;51.768;21.590;2022-11-15T20:27:18;99606.05;;;4.37;100.00
51528;BME280;37612;51.768;21.590;2022-11-15T20:31:19;99607.41;;;4.36;100.00
51528;BME280;37612;51.768;21.590;2022-11-15T20:35:22;99599.05;;;4.38;100.00
51528;BME280;37612;51.768;21.590;2022-11-15T20:39:23;99594.48;;;4.37;100.00
51528;BME280;37612;51.768;21.590;2022-11-15T20:43:25;99590.38;;;4.32;100.00
51528;BME280;37612;51.768;21.590;2022-11-15T20:47:29;99594.28;;;4.32;100.00
51528;BME280;37612;51.768;21.590;2022-11-15T20:51:31;99605.77;;;4.29;100.00
51528;BME280;37612;51.768;21.590;2022-11-15T20:55:32;99606.05;;;4.26;100.00
51528;BME280;37612;51.768;21.590;2022-11-15T20:59:33;99596.55;;;4.25;100.00
51528;BME280;37612;51.768;21.590;2022-11-15T21:03:35;99588.16;;;4.25;100.00
51528;BME280;37612;51.768;21.590;2022-11-15T21:07:36;99577.27;;;4.26;100.00
51528;BME280;37612;51.768;21.590;2022-11-15T21:11:39;99575.16;;;4.25;100.00
51528;BME280;37612;51.768;21.590;2022-11-15T21:16:00;99567.77;;;4.21;100.00
51528;BME280;37612;51.768;21.590;2022-11-15T21:20:03;99559.59;;;4.22;100.00
51528;BME280;37612;51.768;21.590;2022-11-15T21:24:06;99562.48;;;4.24;100.00
51528;BME280;37612;51.768;21.590;2022-11-15T21:28:07;99564.58;;;4.23;100.00
51528;BME280;37612;51.768;21.590;2022-11-15T21:32:08;99562.74;;;4.23;100.00
51528;BME280;37612;51.768;21.590;2022-11-15T21:36:10;99567.12;;;4.25;100.00
51528;BME280;37612;51.768;21.590;2022-11-15T21:40:11;99568.63;;;4.24;100.00
51528;BME280;37612;51.768;21.590;2022-11-15T21:44:12;99564.48;;;4.21;100.00
51528;BME280;37612;51.768;21.590;2022-11-15T21:48:13;99565.19;;;4.18;100.00
51528;BME280;37612;51.768;21.590;2022-11-15T21:52:14;99563.87;;;4.20;100.00
51528;BME280;37612;51.768;21.590;2022-11-15T21:56:16;99559.71;;;4.22;100.00
51528;BME280;37612;51.768;21.590;2022-11-15T22:00:17;99560.09;;;4.21;100.00
51528;BME280;37612;51.768;21.590;2022-11-15T22:04:37;99564.09;;;4.19;100.00
51528;BME280;37612;51.768;21.590;2022-11-15T22:08:39;99561.07;;;4.17;100.00
51528;BME280;37612;51.768;21.590;2022-11-15T22:12:40;99558.41;;;4.18;100.00
51528;BME280;37612;51.768;21.590;2022-11-15T22:16:42;99555.46;;;4.20;100.00
51528;BME280;37612;51.768;21.590;2022-11-15T22:20:56;99559.98;;;4.19;100.00
51528;BME280;37612;51.768;21.590;2022-11-15T22:24:57;99549.77;;;4.20;100.00
51528;BME280;37612;51.768;21.590;2022-11-15T22:28:59;99548.67;;;4.21;100.00
51528;BME280;37612;51.768;21.590;2022-11-15T22:33:00;99537.29;;;4.21;100.00
51528;BME280;37612;51.768;21.590;2022-11-15T22:37:01;99529.77;;;4.23;100.00
51528;BME280;37612;51.768;21.590;2022-11-15T22:41:03;99528.64;;;4.22;100.00
51528;BME280;37612;51.768;21.590;2022-11-15T22:45:04;99525.45;;;4.22;100.00